createdAt,value
2018-11-13T00:00:58.495Z,55.87
2018-11-13T00:03:29.052Z,58.47
2018-11-13T00:05:59.662Z,72.53
2018-11-13T00:08:30.311Z,60.27
2018-11-13T00:11:00.889Z,59.30
2018-11-13T00:13:31.293Z,62.23
2018-11-13T00:16:01.607Z,60.07
2018-11-13T00:18:31.920Z,62.93
2018-11-13T00:21:02.494Z,57.70
2018-11-13T00:23:32.999Z,68.03
2018-11-13T00:26:03.585Z,61.03
2018-11-13T00:28:34.092Z,61.33
2018-11-13T00:31:04.651Z,62.03
2018-11-13T00:33:35.762Z,61.20
2018-11-13T00:36:06.634Z,65.17
2018-11-13T00:38:37.268Z,68.03
2018-11-13T00:41:08.429Z,66.43
2018-11-13T00:43:38.892Z,70.13
2018-11-13T00:46:09.439Z,77.73
2018-11-13T00:48:39.986Z,77.63
2018-11-13T00:51:10.579Z,82.90
2018-11-13T00:53:41.135Z,71.63
2018-11-13T00:56:11.777Z,79.93
2018-11-13T00:58:42.087Z,69.23
2018-11-13T01:01:12.500Z,81.03
2018-11-13T01:03:43.098Z,69.57
2018-11-13T01:06:13.819Z,68.73
2018-11-13T01:08:44.156Z,65.97
2018-11-13T01:11:14.438Z,65.80
2018-11-13T01:13:45.387Z,65.47
2018-11-13T01:16:15.675Z,65.17
2018-11-13T01:18:46.040Z,69.27
2018-11-13T01:21:16.550Z,63.87
2018-11-13T01:23:47.156Z,63.23
2018-11-13T01:26:17.698Z,68.13
2018-11-13T01:28:48.193Z,67.07
2018-11-13T01:31:18.639Z,77.73
2018-11-13T01:33:48.957Z,84.23
2018-11-13T01:36:19.419Z,82.20
2018-11-13T01:38:49.775Z,76.50
2018-11-13T01:41:20.180Z,72.53
2018-11-13T01:43:50.643Z,68.23
2018-11-13T01:46:21.315Z,71.97
2018-11-13T01:48:51.732Z,85.63
2018-11-13T01:51:22.132Z,70.77
2018-11-13T01:53:52.492Z,62.87
2018-11-13T01:56:22.767Z,68.93
2018-11-13T01:58:53.968Z,74.60
2018-11-13T02:01:24.227Z,79.13
2018-11-13T02:03:54.601Z,79.83
2018-11-13T02:06:25.112Z,69.50
2018-11-13T02:08:55.510Z,65.63
2018-11-13T02:11:26.066Z,74.77
2018-11-13T02:13:56.458Z,72.27
2018-11-13T02:16:26.903Z,70.67
2018-11-13T02:18:57.305Z,70.50
2018-11-13T02:21:27.796Z,63.73
2018-11-13T02:23:58.271Z,68.57
2018-11-13T02:26:28.972Z,66.63
2018-11-13T02:28:59.467Z,80.10
2018-11-13T02:31:29.699Z,68.67
2018-11-13T02:34:00.104Z,67.43
2018-11-13T02:36:30.584Z,67.63
2018-11-13T02:39:00.967Z,72.77
2018-11-13T02:41:31.963Z,65.80
2018-11-13T02:44:02.467Z,76.17
2018-11-13T02:46:33.024Z,76.70
2018-11-13T02:49:04.715Z,86.20
2018-11-13T02:51:35.622Z,71.57
2018-11-13T02:54:06.280Z,72.07
2018-11-13T02:56:36.912Z,70.63
2018-11-13T02:59:07.375Z,73.83
2018-11-13T03:01:38.046Z,66.67
2018-11-13T03:04:08.652Z,74.63
2018-11-13T03:06:39.430Z,81.23
2018-11-13T03:09:09.923Z,67.13
2018-11-13T03:11:40.300Z,69.27
2018-11-13T03:14:11.187Z,78.77
2018-11-13T03:16:41.742Z,74.37
2018-11-13T03:19:12.276Z,73.33
2018-11-13T03:21:42.483Z,71.53
2018-11-13T03:24:12.788Z,71.33
2018-11-13T03:26:43.371Z,71.57
2018-11-13T03:29:14.070Z,76.33
2018-11-13T03:31:44.519Z,70.30
2018-11-13T03:34:14.946Z,67.50
2018-11-13T03:36:45.293Z,66.90
2018-11-13T03:39:15.673Z,60.90
2018-11-13T03:41:46.256Z,61.13
2018-11-13T03:44:16.795Z,68.20
2018-11-13T03:46:47.371Z,69.40
2018-11-13T03:49:17.951Z,73.90
2018-11-13T03:51:48.266Z,64.70
2018-11-13T03:54:18.659Z,70.03
2018-11-13T03:56:48.912Z,69.50
2018-11-13T03:59:19.363Z,72.03
2018-11-13T04:01:49.740Z,64.27
2018-11-13T04:04:20.096Z,69.77
2018-11-13T04:06:51.076Z,68.10
2018-11-13T04:09:21.572Z,67.50
2018-11-13T04:11:51.798Z,76.10
2018-11-13T04:14:22.212Z,63.90
2018-11-13T04:16:52.769Z,60.10
2018-11-13T04:19:23.319Z,67.33
2018-11-13T04:21:59.792Z,62.30
2018-11-13T04:24:30.003Z,60.83
2018-11-13T04:27:00.636Z,61.70
2018-11-13T04:29:31.435Z,55.83
2018-11-13T04:32:02.068Z,61.77
2018-11-13T04:34:32.544Z,63.40
2018-11-13T04:37:02.968Z,64.50
2018-11-13T04:39:33.396Z,65.80
2018-11-13T04:42:04.024Z,65.10
2018-11-13T04:44:34.469Z,58.90
2018-11-13T04:47:05.111Z,56.80
2018-11-13T04:49:35.627Z,61.80
2018-11-13T04:52:06.304Z,63.30
2018-11-13T04:54:36.616Z,61.77
2018-11-13T04:57:07.439Z,54.77
2018-11-13T04:59:37.756Z,56.90
2018-11-13T05:02:08.263Z,65.47
2018-11-13T05:04:38.657Z,52.33
2018-11-13T05:07:09.106Z,52.97
2018-11-13T05:09:39.571Z,63.60
2018-11-13T05:12:10.276Z,56.00
2018-11-13T05:14:40.775Z,59.57
2018-11-13T05:17:11.908Z,56.97
2018-11-13T05:19:42.319Z,54.30
2018-11-13T05:22:12.938Z,53.07
2018-11-13T05:24:43.311Z,61.63
2018-11-13T05:27:13.567Z,56.73
2018-11-13T05:29:43.851Z,56.27
2018-11-13T05:32:14.256Z,53.13
2018-11-13T05:34:44.615Z,60.63
2018-11-13T05:37:14.993Z,67.53
2018-11-13T05:39:45.596Z,59.70
2018-11-13T05:42:16.039Z,62.00
2018-11-13T05:44:46.351Z,56.70
2018-11-13T05:47:16.854Z,64.33
2018-11-13T05:49:47.386Z,55.90
2018-11-13T05:52:20.597Z,65.33
2018-11-13T05:54:51.143Z,56.53
2018-11-13T05:57:21.728Z,74.13
2018-11-13T05:59:52.179Z,66.23
2018-11-13T06:02:22.539Z,62.83
2018-11-13T06:04:52.954Z,60.43
2018-11-13T06:07:23.623Z,63.23
2018-11-13T06:09:54.569Z,61.33
2018-11-13T06:12:25.112Z,59.90
2018-11-13T06:14:55.718Z,69.80
2018-11-13T06:17:26.226Z,60.00
2018-11-13T06:19:56.677Z,69.53
2018-11-13T06:22:27.148Z,66.00
2018-11-13T06:24:57.514Z,66.50
2018-11-13T06:27:28.094Z,64.23
2018-11-13T06:29:58.509Z,68.50
2018-11-13T06:32:29.017Z,64.10
2018-11-13T06:34:59.267Z,68.40
2018-11-13T06:37:29.722Z,68.07
2018-11-13T06:40:00.620Z,60.10
2018-11-13T06:42:31.107Z,67.93
2018-11-13T06:45:01.608Z,73.43
2018-11-13T06:47:32.083Z,68.13
2018-11-13T06:50:02.586Z,70.90
2018-11-13T06:52:33.347Z,66.60
2018-11-13T06:55:07.879Z,70.40
2018-11-13T06:57:38.525Z,76.30
2018-11-13T07:00:10.944Z,73.70
2018-11-13T07:02:41.428Z,75.93
2018-11-13T07:05:15.068Z,84.70
2018-11-13T07:07:45.843Z,73.07
2018-11-13T07:10:17.636Z,81.07
2018-11-13T07:12:49.316Z,80.10
2018-11-13T07:15:22.791Z,75.37
2018-11-13T07:17:54.625Z,76.17
2018-11-13T07:20:26.073Z,75.77
2018-11-13T07:22:56.319Z,74.83
2018-11-13T07:25:26.918Z,83.40
2018-11-13T07:27:57.312Z,82.13
2018-11-13T07:30:28.375Z,77.63
2018-11-13T07:32:58.870Z,78.30
2018-11-13T07:35:29.275Z,82.03
2018-11-13T07:38:00.792Z,82.00
2018-11-13T07:40:31.228Z,77.13
2018-11-13T07:43:01.787Z,77.33
2018-11-13T07:45:32.421Z,73.50
2018-11-13T07:48:02.909Z,70.60
2018-11-13T07:50:33.677Z,76.47
2018-11-13T07:53:04.163Z,76.10
2018-11-13T07:55:34.641Z,72.10
2018-11-13T07:58:05.887Z,74.80
2018-11-13T08:00:36.423Z,61.87
2018-11-13T08:03:36.623Z,66.27
2018-11-13T08:06:07.426Z,63.00
2018-11-13T08:08:37.935Z,72.87
2018-11-13T08:11:08.546Z,63.17
2018-11-13T08:13:39.311Z,70.60
2018-11-13T08:16:09.804Z,67.47
2018-11-13T08:18:40.251Z,64.60
2018-11-13T08:21:10.786Z,69.47
2018-11-13T08:23:41.231Z,76.20
2018-11-13T08:26:11.819Z,67.57
2018-11-13T08:28:42.177Z,63.97
2018-11-13T08:31:12.675Z,52.00
2018-11-13T08:33:43.159Z,61.40
2018-11-13T08:36:13.682Z,58.00
2018-11-13T08:38:44.028Z,60.03
2018-11-13T08:41:14.516Z,58.77
2018-11-13T08:43:45.036Z,54.73
2018-11-13T08:46:15.600Z,55.60
2018-11-13T08:48:46.124Z,60.47
2018-11-13T08:51:16.560Z,63.20
2018-11-13T08:53:47.344Z,56.70
2018-11-13T08:56:17.736Z,55.37
2018-11-13T08:58:48.011Z,49.50
2018-11-13T09:01:18.583Z,45.43
2018-11-13T09:03:48.966Z,42.57
2018-11-13T09:06:19.819Z,38.80
2018-11-13T09:08:50.206Z,41.37
2018-11-13T09:11:21.667Z,40.53
2018-11-13T09:13:52.333Z,39.47
2018-11-13T09:16:23.176Z,38.30
2018-11-13T09:18:55.627Z,36.93
2018-11-13T09:21:25.997Z,26.77
2018-11-13T09:23:56.555Z,22.33
2018-11-13T09:26:26.915Z,26.00
2018-11-13T09:28:57.273Z,27.50
2018-11-13T09:31:27.697Z,22.33
2018-11-13T09:33:57.993Z,25.07
2018-11-13T09:36:28.380Z,20.63
2018-11-13T09:38:58.788Z,21.10
2018-11-13T09:41:29.176Z,17.93
2018-11-13T09:43:59.630Z,15.50
2018-11-13T09:46:30.087Z,16.17
2018-11-13T09:49:00.548Z,13.57
2018-11-13T09:51:30.988Z,16.00
2018-11-13T09:54:01.358Z,14.90
2018-11-13T09:56:32.118Z,14.40
2018-11-13T09:59:02.808Z,15.20
2018-11-13T10:01:33.782Z,16.30
2018-11-13T10:04:04.360Z,18.17
2018-11-13T10:06:34.504Z,13.07
2018-11-13T10:09:08.364Z,11.60
2018-11-13T10:11:38.929Z,14.93
2018-11-13T10:14:09.681Z,12.07
2018-11-13T10:16:40.580Z,11.30
2018-11-13T10:19:11.876Z,10.27
2018-11-13T10:21:42.180Z,10.70
2018-11-13T10:24:12.680Z,6.07
2018-11-13T10:26:43.180Z,10.00
2018-11-13T10:29:13.507Z,4.73
2018-11-13T10:31:43.828Z,6.00
2018-11-13T10:34:14.196Z,6.40
2018-11-13T10:36:44.787Z,6.63
2018-11-13T10:39:15.279Z,5.27
2018-11-13T10:41:45.696Z,9.10
2018-11-13T10:44:16.130Z,2.40
2018-11-13T10:46:46.595Z,4.50
2018-11-13T10:49:17.321Z,3.67
2018-11-13T10:51:47.856Z,4.97
2018-11-13T10:54:18.224Z,6.93
2018-11-13T10:56:48.613Z,2.80
2018-11-13T10:59:19.080Z,4.53
2018-11-13T11:01:54.500Z,2.17
2018-11-13T11:04:30.239Z,3.60
2018-11-13T11:07:00.727Z,5.67
2018-11-13T11:09:31.269Z,6.27
2018-11-13T11:12:01.645Z,4.03
2018-11-13T11:14:38.017Z,6.80
2018-11-13T11:17:09.000Z,3.57
2018-11-13T11:19:39.622Z,4.83
2018-11-13T11:22:09.812Z,5.40
2018-11-13T11:24:40.274Z,3.33
2018-11-13T11:27:10.780Z,6.07
2018-11-13T11:29:41.247Z,5.50
2018-11-13T11:32:11.436Z,2.80
2018-11-13T11:34:42.057Z,3.70
2018-11-13T11:37:12.471Z,5.37
2018-11-13T11:39:42.963Z,6.57
2018-11-13T11:42:13.375Z,2.13
2018-11-13T11:44:43.843Z,2.90
2018-11-13T11:47:14.199Z,8.63
2018-11-13T11:49:44.744Z,5.63
2018-11-13T11:52:15.840Z,7.17
2018-11-13T11:54:46.184Z,5.00
2018-11-13T11:57:16.674Z,2.73
2018-11-13T11:59:47.249Z,4.30
2018-11-13T12:02:17.679Z,4.80
2018-11-13T12:04:47.930Z,3.00
2018-11-13T12:07:18.383Z,1.60
2018-11-13T12:09:49.595Z,10.60
2018-11-13T12:12:20.122Z,4.67
2018-11-13T12:14:50.613Z,6.43
2018-11-13T12:17:21.036Z,1.73
2018-11-13T12:19:51.276Z,5.50
2018-11-13T12:22:21.722Z,7.50
2018-11-13T12:24:52.667Z,6.20
2018-11-13T12:27:23.151Z,2.17
2018-11-13T12:29:53.773Z,4.40
2018-11-13T12:32:24.245Z,3.20
2018-11-13T12:34:54.705Z,6.70
2018-11-13T12:37:25.204Z,5.47
2018-11-13T12:39:55.623Z,2.33
2018-11-13T12:42:25.863Z,6.23
2018-11-13T12:44:56.259Z,7.27
2018-11-13T12:47:28.641Z,3.00
2018-11-13T12:49:59.451Z,2.67
2018-11-13T12:52:30.341Z,4.33
2018-11-13T12:55:01.344Z,6.87
2018-11-13T12:57:31.854Z,8.63
2018-11-13T13:00:02.891Z,6.70
2018-11-13T13:02:36.064Z,4.40
2018-11-13T13:05:07.828Z,3.97
2018-11-13T13:07:41.320Z,7.97
2018-11-13T13:10:14.414Z,4.33
2018-11-13T13:12:46.181Z,6.83
2018-11-13T13:15:18.055Z,7.23
2018-11-13T13:17:48.535Z,3.70
2018-11-13T13:20:21.273Z,4.40
2018-11-13T13:22:51.939Z,5.07
2018-11-13T13:25:23.977Z,5.20
2018-11-13T13:27:54.544Z,5.13
2018-11-13T13:30:25.974Z,5.40
2018-11-13T13:32:56.972Z,3.63
2018-11-13T13:35:47.706Z,5.87
2018-11-13T13:38:18.799Z,10.00
2018-11-13T13:40:53.170Z,5.90
2018-11-13T13:43:24.992Z,3.37
2018-11-13T13:45:55.976Z,8.33
2018-11-13T13:48:26.879Z,2.97
2018-11-13T13:50:58.589Z,6.30
2018-11-13T13:53:29.422Z,5.30
2018-11-13T13:55:59.959Z,4.97
2018-11-13T13:58:30.452Z,5.97
2018-11-13T14:01:01.039Z,3.27
2018-11-13T14:03:31.306Z,6.13
2018-11-13T14:06:01.975Z,1.63
2018-11-13T14:08:32.470Z,3.63
2018-11-13T14:11:02.955Z,3.30
2018-11-13T14:13:33.452Z,2.30
2018-11-13T14:16:03.793Z,4.37
2018-11-13T14:18:34.119Z,7.50
2018-11-13T14:21:04.720Z,1.40
2018-11-13T14:23:35.099Z,3.90
2018-11-13T14:26:05.568Z,6.87
2018-11-13T14:28:36.138Z,2.83
2018-11-13T14:31:06.719Z,1.70
2018-11-13T14:33:37.306Z,3.30
2018-11-13T14:36:08.580Z,1.17
2018-11-13T14:38:38.965Z,3.40
2018-11-13T14:41:09.559Z,1.57
2018-11-13T14:43:40.678Z,2.53
2018-11-13T14:46:11.020Z,1.07
2018-11-13T14:48:41.479Z,3.97
2018-11-13T14:51:12.170Z,2.60
2018-11-13T14:53:42.496Z,3.83
2018-11-13T14:56:13.062Z,3.57
2018-11-13T14:58:43.560Z,3.23
2018-11-13T15:01:14.043Z,2.63
2018-11-13T15:03:44.652Z,5.20
2018-11-13T15:06:15.182Z,2.50
2018-11-13T15:08:45.479Z,3.90
2018-11-13T15:11:15.947Z,3.83
2018-11-13T15:13:46.359Z,4.93
2018-11-13T15:16:16.936Z,5.27
2018-11-13T15:18:47.468Z,3.60
2018-11-13T15:21:17.907Z,3.90
2018-11-13T15:23:48.123Z,5.40
2018-11-13T15:26:18.435Z,2.83
2018-11-13T15:28:48.823Z,1.60
2018-11-13T15:31:19.310Z,4.47
2018-11-13T15:33:49.649Z,11.43
2018-11-13T15:36:20.189Z,8.17
2018-11-13T15:38:50.797Z,8.03
2018-11-13T15:41:21.236Z,6.50
2018-11-13T15:43:52.592Z,3.10
2018-11-13T15:46:23.216Z,8.63
2018-11-13T15:48:53.681Z,6.87
2018-11-13T15:51:24.172Z,6.37
2018-11-13T15:53:54.579Z,3.57
2018-11-13T15:56:25.105Z,5.80
2018-11-13T15:58:55.496Z,3.40
2018-11-13T16:01:25.776Z,4.97
2018-11-13T16:03:56.682Z,2.90
2018-11-13T16:06:27.265Z,4.77
2018-11-13T16:08:57.779Z,2.97
2018-11-13T16:11:28.361Z,3.67
2018-11-13T16:13:58.583Z,9.40
2018-11-13T16:16:29.107Z,9.83
2018-11-13T16:18:59.505Z,9.87
2018-11-13T16:21:30.306Z,5.17
2018-11-13T16:24:00.548Z,6.77
2018-11-13T16:26:30.909Z,4.30
2018-11-13T16:29:01.226Z,5.80
2018-11-13T16:31:31.905Z,4.10
2018-11-13T16:34:02.284Z,6.57
2018-11-13T16:36:32.899Z,1.87
2018-11-13T16:39:03.209Z,6.33
2018-11-13T16:41:33.556Z,4.13
2018-11-13T16:44:04.016Z,5.50
2018-11-13T16:46:34.531Z,7.13
2018-11-13T16:49:05.441Z,9.80
2018-11-13T16:51:35.907Z,8.23
2018-11-13T16:54:08.323Z,10.53
2018-11-13T16:56:44.004Z,7.20
2018-11-13T16:59:14.436Z,6.83
2018-11-13T17:01:45.064Z,7.63
2018-11-13T17:04:15.423Z,9.33
2018-11-13T17:06:46.063Z,9.30
2018-11-13T17:09:16.169Z,9.40
2018-11-13T17:11:46.834Z,7.53
2018-11-13T17:14:17.265Z,10.53
2018-11-13T17:16:47.837Z,5.60
2018-11-13T17:19:18.126Z,11.93
2018-11-13T17:21:48.604Z,11.03
2018-11-13T17:24:19.083Z,13.13
2018-11-13T17:26:49.616Z,7.90
2018-11-13T17:29:20.132Z,13.33
2018-11-13T17:31:50.727Z,8.70
2018-11-13T17:34:21.239Z,10.57
2018-11-13T17:36:51.567Z,7.73
2018-11-13T17:39:22.072Z,5.23
2018-11-13T17:41:52.667Z,8.20
2018-11-13T17:44:23.228Z,9.67
2018-11-13T17:46:53.808Z,9.00
2018-11-13T17:49:24.426Z,7.67
2018-11-13T17:51:57.017Z,4.67
2018-11-13T17:54:27.427Z,5.93
2018-11-13T17:56:57.829Z,7.73
2018-11-13T17:59:28.326Z,9.80
2018-11-13T18:01:58.756Z,10.10
2018-11-13T18:04:29.226Z,8.00
2018-11-13T18:07:00.100Z,8.43
2018-11-13T18:09:30.535Z,8.90
2018-11-13T18:12:01.101Z,11.87
2018-11-13T18:14:31.749Z,10.93
2018-11-13T18:17:01.916Z,8.77
2018-11-13T18:19:32.363Z,8.13
2018-11-13T18:22:02.967Z,8.53
2018-11-13T18:24:33.658Z,13.00
2018-11-13T18:27:04.183Z,8.23
2018-11-13T18:29:34.294Z,14.40
2018-11-13T18:32:04.751Z,13.27
2018-11-13T18:34:35.318Z,5.90
2018-11-13T18:37:05.833Z,7.60
2018-11-13T18:39:36.392Z,12.80
2018-11-13T18:42:07.170Z,6.57
2018-11-13T18:44:37.664Z,10.83
2018-11-13T18:47:08.111Z,8.43
2018-11-13T18:49:38.695Z,10.30
2018-11-13T18:52:09.139Z,8.37
2018-11-13T18:54:39.544Z,11.80
2018-11-13T18:57:10.104Z,8.33
2018-11-13T18:59:40.608Z,8.40
2018-11-13T19:02:11.139Z,10.73
2018-11-13T19:04:41.437Z,16.23
2018-11-13T19:07:11.906Z,8.73
2018-11-13T19:09:42.390Z,5.63
2018-11-13T19:12:12.763Z,8.17
2018-11-13T19:14:43.312Z,6.77
2018-11-13T19:17:13.888Z,6.07
2018-11-13T19:19:44.455Z,11.37
2018-11-13T19:22:14.952Z,8.23
2018-11-13T19:24:45.308Z,10.00
2018-11-13T19:27:15.656Z,11.20
2018-11-13T19:29:46.245Z,8.80
2018-11-13T19:32:16.822Z,6.97
2018-11-13T19:34:47.324Z,11.30
2018-11-13T19:37:18.015Z,7.07
2018-11-13T19:39:48.548Z,10.33
2018-11-13T19:42:19.083Z,5.50
2018-11-13T19:44:49.723Z,10.33
2018-11-13T19:47:19.843Z,17.83
2018-11-13T19:49:50.449Z,11.53
2018-11-13T19:52:20.698Z,11.10
2018-11-13T19:54:51.180Z,9.87
2018-11-13T19:57:21.532Z,5.90
2018-11-13T19:59:51.987Z,11.33
2018-11-13T20:02:22.511Z,8.40
2018-11-13T20:04:53.000Z,14.97
2018-11-13T20:07:23.487Z,7.80
2018-11-13T20:09:53.891Z,9.00
2018-11-13T20:12:24.531Z,8.13
2018-11-13T20:14:54.783Z,10.93
2018-11-13T20:17:25.590Z,8.53
2018-11-13T20:19:56.025Z,15.23
2018-11-13T20:22:26.753Z,7.30
2018-11-13T20:24:57.315Z,11.97
2018-11-13T20:27:27.613Z,17.77
2018-11-13T20:29:58.044Z,6.67
2018-11-13T20:32:28.464Z,8.00
2018-11-13T20:34:58.860Z,12.00
2018-11-13T20:37:29.420Z,13.13
2018-11-13T20:39:59.976Z,12.70
2018-11-13T20:42:30.437Z,12.83
2018-11-13T20:45:00.903Z,14.30
2018-11-13T20:47:31.257Z,12.80
2018-11-13T20:50:01.665Z,8.23
2018-11-13T20:52:32.814Z,14.43
2018-11-13T20:55:03.369Z,7.57
2018-11-13T20:57:33.833Z,7.47
2018-11-13T21:00:04.548Z,8.43
2018-11-13T21:02:35.202Z,9.57
2018-11-13T21:05:05.717Z,13.63
2018-11-13T21:07:36.805Z,11.53
2018-11-13T21:10:14.592Z,9.70
2018-11-13T21:12:45.628Z,9.33
2018-11-13T21:15:17.619Z,13.33
2018-11-13T21:17:48.038Z,13.57
2018-11-13T21:20:19.487Z,16.47
2018-11-13T21:22:49.899Z,11.53
2018-11-13T21:25:22.771Z,14.47
2018-11-13T21:27:57.215Z,29.10
2018-11-13T21:30:27.847Z,21.20
2018-11-13T21:32:58.274Z,17.60
2018-11-13T21:35:28.881Z,12.23
2018-11-13T21:37:59.519Z,13.73
2018-11-13T21:40:29.973Z,11.70
2018-11-13T21:43:00.177Z,12.60
2018-11-13T21:45:30.339Z,9.20
2018-11-13T21:48:00.843Z,13.20
2018-11-13T21:50:31.374Z,16.53
2018-11-13T21:53:01.856Z,22.90
2018-11-13T21:55:32.143Z,13.70
2018-11-13T21:58:02.655Z,19.20
2018-11-13T22:00:34.460Z,23.67
2018-11-13T22:03:07.604Z,16.10
2018-11-13T22:05:38.383Z,18.37
2018-11-13T22:08:08.909Z,22.17
2018-11-13T22:10:39.184Z,20.73
2018-11-13T22:13:09.640Z,18.37
2018-11-13T22:15:39.956Z,11.70
2018-11-13T22:18:10.432Z,18.20
2018-11-13T22:20:43.615Z,17.30
2018-11-13T22:23:11.317Z,17.50
2018-11-13T22:25:41.761Z,21.20
2018-11-13T22:28:12.380Z,18.70
2018-11-13T22:30:43.037Z,15.80
2018-11-13T22:33:13.539Z,14.73
2018-11-13T22:35:44.008Z,20.80
2018-11-13T22:38:14.729Z,22.10
2018-11-13T22:40:45.109Z,19.97
2018-11-13T22:43:15.661Z,20.77
2018-11-13T22:45:46.058Z,17.37
2018-11-13T22:48:16.403Z,15.40
2018-11-13T22:50:46.867Z,17.87
2018-11-13T22:53:17.184Z,17.57
2018-11-13T22:55:47.567Z,16.63
2018-11-13T22:58:18.622Z,18.87
2018-11-13T23:00:49.392Z,18.73
2018-11-13T23:03:20.610Z,17.13
2018-11-13T23:05:51.384Z,15.73
2018-11-13T23:08:22.546Z,19.07
2018-11-13T23:10:52.808Z,20.13
2018-11-13T23:13:23.164Z,25.07
2018-11-13T23:15:53.739Z,20.87
2018-11-13T23:18:24.210Z,22.80
2018-11-13T23:20:54.428Z,17.37
2018-11-13T23:23:24.843Z,17.40
2018-11-13T23:25:55.287Z,22.00
2018-11-13T23:28:25.615Z,29.40
2018-11-13T23:30:55.944Z,24.33
2018-11-13T23:33:26.427Z,19.33
2018-11-13T23:35:56.957Z,18.53
2018-11-13T23:38:27.604Z,17.90
2018-11-13T23:40:57.974Z,20.30
2018-11-13T23:43:28.341Z,21.70
2018-11-13T23:45:58.706Z,23.67
2018-11-13T23:48:29.090Z,22.87
2018-11-13T23:50:59.624Z,29.30
2018-11-13T23:53:30.463Z,22.47
2018-11-13T23:56:00.866Z,20.67
2018-11-13T23:58:31.221Z,23.07
